createdAt,value
2018-05-15T00:00:10.985Z,0
2018-05-15T00:01:10.972Z,0
2018-05-15T00:02:11.223Z,0
2018-05-15T00:03:10.695Z,0
2018-05-15T00:04:11.215Z,0
2018-05-15T00:05:11.194Z,0
2018-05-15T00:06:10.923Z,0
2018-05-15T00:07:10.640Z,0
2018-05-15T00:08:10.624Z,0
2018-05-15T00:09:10.892Z,0
2018-05-15T00:10:10.605Z,0
2018-05-15T00:11:10.599Z,0
2018-05-15T00:12:10.585Z,0
2018-05-15T00:13:11.407Z,0
2018-05-15T00:14:10.835Z,0
2018-05-15T00:15:10.557Z,0
2018-05-15T00:16:10.799Z,0
2018-05-15T00:17:10.792Z,0
2018-05-15T00:18:11.045Z,0
2018-05-15T00:19:10.499Z,0
2018-05-15T00:20:10.743Z,0
2018-05-15T00:21:10.470Z,0
2018-05-15T00:22:10.732Z,0
2018-05-15T00:23:10.995Z,0
2018-05-15T00:24:10.180Z,0
2018-05-15T00:25:10.161Z,0
2018-05-15T00:26:10.947Z,0
2018-05-15T00:27:10.412Z,0
2018-05-15T00:28:10.119Z,0
2018-05-15T00:29:10.385Z,0
2018-05-15T00:30:10.099Z,0
2018-05-15T00:31:10.356Z,0
2018-05-15T00:32:10.610Z,0
2018-05-15T00:33:10.326Z,0
2018-05-15T00:34:10.323Z,0
2018-05-15T00:35:10.848Z,0
2018-05-15T00:36:10.820Z,0
2018-05-15T00:37:10.027Z,0
2018-05-15T00:38:10.540Z,0
2018-05-15T00:39:10.524Z,0
2018-05-15T00:40:10.259Z,0
2018-05-15T00:41:09.965Z,0
2018-05-15T00:42:10.495Z,0
2018-05-15T00:43:10.480Z,0
2018-05-15T00:44:10.210Z,0
2018-05-15T00:45:10.452Z,0
2018-05-15T00:46:09.911Z,0
2018-05-15T00:47:10.449Z,0
2018-05-15T00:48:10.430Z,0
2018-05-15T00:49:10.667Z,0
2018-05-15T00:50:10.412Z,0
2018-05-15T00:51:09.842Z,0
2018-05-15T00:52:10.365Z,0
2018-05-15T00:53:10.362Z,0
2018-05-15T00:54:10.083Z,0
2018-05-15T00:55:10.334Z,0
2018-05-15T00:56:09.787Z,0
2018-05-15T00:57:10.316Z,0
2018-05-15T00:58:09.760Z,0
2018-05-15T00:59:10.013Z,0
2018-05-15T01:00:10.536Z,0
2018-05-15T01:01:09.725Z,0
2018-05-15T01:02:09.709Z,0
2018-05-15T01:03:10.229Z,0
2018-05-15T01:04:10.223Z,0
2018-05-15T01:05:09.936Z,0
2018-05-15T01:06:09.939Z,0
2018-05-15T01:07:09.662Z,0
2018-05-15T01:08:09.908Z,0
2018-05-15T01:09:09.887Z,0
2018-05-15T01:10:10.145Z,0
2018-05-15T01:11:09.860Z,0
2018-05-15T01:12:10.142Z,0
2018-05-15T01:13:10.385Z,0
2018-05-15T01:14:10.090Z,0
2018-05-15T01:15:09.554Z,0
2018-05-15T01:16:09.553Z,0
2018-05-15T01:17:10.073Z,0
2018-05-15T01:18:10.049Z,0
2018-05-15T01:19:10.040Z,0
2018-05-15T01:20:10.378Z,0
2018-05-15T01:21:09.741Z,0
2018-05-15T01:22:09.987Z,0
2018-05-15T01:23:09.721Z,0
2018-05-15T01:24:10.235Z,0
2018-05-15T01:25:09.688Z,0
2018-05-15T01:26:10.209Z,0
2018-05-15T01:27:09.924Z,0
2018-05-15T01:28:09.916Z,0
2018-05-15T01:29:09.903Z,0
2018-05-15T01:30:09.639Z,0
2018-05-15T01:31:10.135Z,0
2018-05-15T01:32:09.865Z,0
2018-05-15T01:33:09.859Z,0
2018-05-15T01:34:10.103Z,0
2018-05-15T01:35:09.566Z,0
2018-05-15T01:36:09.544Z,0
2018-05-15T01:37:09.799Z,0
2018-05-15T01:38:09.535Z,0
2018-05-15T01:39:10.047Z,0
2018-05-15T01:40:09.510Z,0
2018-05-15T01:41:09.485Z,0
2018-05-15T01:42:09.741Z,0
2018-05-15T01:43:09.726Z,0
2018-05-15T01:44:09.717Z,0
2018-05-15T01:45:09.969Z,0
2018-05-15T01:46:09.697Z,0
2018-05-15T01:47:09.434Z,0
2018-05-15T01:48:09.933Z,0
2018-05-15T01:49:09.114Z,0
2018-05-15T01:50:09.908Z,0
2018-05-15T01:51:09.624Z,0
2018-05-15T01:52:09.606Z,0
2018-05-15T01:53:09.333Z,0
2018-05-15T01:54:09.845Z,0
2018-05-15T01:55:09.575Z,0
2018-05-15T01:56:09.560Z,0
2018-05-15T01:57:09.571Z,0
2018-05-15T01:58:09.529Z,0
2018-05-15T01:59:09.260Z,0
2018-05-15T02:00:08.976Z,0
2018-05-15T02:01:09.234Z,0
2018-05-15T02:02:09.750Z,0
2018-05-15T02:03:09.203Z,0
2018-05-15T02:04:09.455Z,0
2018-05-15T02:05:09.189Z,0
2018-05-15T02:06:09.432Z,0
2018-05-15T02:07:09.691Z,0
2018-05-15T02:08:09.144Z,0
2018-05-15T02:09:08.859Z,0
2018-05-15T02:10:09.122Z,0
2018-05-15T02:11:09.105Z,0
2018-05-15T02:12:09.622Z,0
2018-05-15T02:13:09.544Z,0
2018-05-15T02:14:09.083Z,0
2018-05-15T02:15:09.134Z,0
2018-05-15T02:16:09.105Z,0
2018-05-15T02:17:09.286Z,0
2018-05-15T02:18:09.281Z,0
2018-05-15T02:19:09.002Z,0
2018-05-15T02:20:08.998Z,0
2018-05-15T02:21:09.508Z,0
2018-05-15T02:22:08.709Z,0
2018-05-15T02:23:09.218Z,0
2018-05-15T02:24:08.938Z,0
2018-05-15T02:25:09.191Z,0
2018-05-15T02:26:09.443Z,0
2018-05-15T02:27:08.899Z,0
2018-05-15T02:28:08.880Z,0
2018-05-15T02:29:08.880Z,0
2018-05-15T02:30:09.399Z,0
2018-05-15T02:31:09.116Z,0
2018-05-15T02:32:09.366Z,0
2018-05-15T02:33:09.360Z,0
2018-05-15T02:34:08.551Z,0
2018-05-15T02:35:09.076Z,0
2018-05-15T02:36:08.783Z,0
2018-05-15T02:37:09.053Z,0
2018-05-15T02:38:09.040Z,0
2018-05-15T02:39:08.752Z,0
2018-05-15T02:40:08.737Z,0
2018-05-15T02:41:08.992Z,0
2018-05-15T02:42:09.245Z,0
2018-05-15T02:43:08.429Z,0
2018-05-15T02:44:09.218Z,0
2018-05-15T02:45:08.936Z,0
2018-05-15T02:46:08.659Z,0
2018-05-15T02:47:08.644Z,0
2018-05-15T02:48:09.168Z,0
2018-05-15T02:49:08.888Z,0
2018-05-15T02:50:09.137Z,0
2018-05-15T02:51:09.124Z,0
2018-05-15T02:52:08.583Z,0
2018-05-15T02:53:08.840Z,0
2018-05-15T02:54:08.561Z,0
2018-05-15T02:55:08.809Z,0
2018-05-15T02:56:08.790Z,0
2018-05-15T02:57:08.513Z,0
2018-05-15T02:58:08.782Z,0
2018-05-15T02:59:08.487Z,0
2018-05-15T03:00:08.475Z,0
2018-05-15T03:01:08.991Z,0
2018-05-15T03:02:09.045Z,0
2018-05-15T03:03:08.440Z,0
2018-05-15T03:04:08.430Z,4
2018-05-15T03:05:08.677Z,4
2018-05-15T03:06:08.944Z,0
2018-05-15T03:07:08.647Z,0
2018-05-15T03:08:08.376Z,4
2018-05-15T03:09:08.098Z,4
2018-05-15T03:10:08.336Z,4
2018-05-15T03:11:08.336Z,4
2018-05-15T03:12:08.581Z,4
2018-05-15T03:13:08.578Z,8
2018-05-15T03:14:08.556Z,4
2018-05-15T03:15:08.553Z,8
2018-05-15T03:16:08.540Z,8
2018-05-15T03:17:08.517Z,8
2018-05-15T03:18:08.500Z,12
2018-05-15T03:19:08.491Z,12
2018-05-15T03:20:08.491Z,16
2018-05-15T03:21:08.201Z,16
2018-05-15T03:22:08.452Z,24
2018-05-15T03:23:08.716Z,24
2018-05-15T03:24:08.426Z,28
2018-05-15T03:25:08.417Z,32
2018-05-15T03:26:08.133Z,36
2018-05-15T03:27:08.389Z,36
2018-05-15T03:28:08.371Z,44
2018-05-15T03:29:08.097Z,48
2018-05-15T03:30:07.822Z,52
2018-05-15T03:31:08.816Z,60
2018-05-15T03:32:08.530Z,64
2018-05-15T03:33:08.336Z,76
2018-05-15T03:34:08.042Z,84
2018-05-15T03:35:08.292Z,88
2018-05-15T03:36:08.543Z,100
2018-05-15T03:37:07.993Z,108
2018-05-15T03:38:08.244Z,120
2018-05-15T03:39:07.962Z,128
2018-05-15T03:40:08.235Z,140
2018-05-15T03:41:08.212Z,152
2018-05-15T03:42:07.926Z,164
2018-05-15T03:43:08.508Z,180
2018-05-15T03:44:08.167Z,188
2018-05-15T03:45:07.889Z,204
2018-05-15T03:46:07.608Z,216
2018-05-15T03:47:07.862Z,232
2018-05-15T03:48:08.113Z,244
2018-05-15T03:49:07.837Z,260
2018-05-15T03:50:08.088Z,276
2018-05-15T03:51:08.349Z,292
2018-05-15T03:52:08.323Z,312
2018-05-15T03:53:08.052Z,328
2018-05-15T03:54:08.038Z,340
2018-05-15T03:55:08.029Z,360
2018-05-15T03:56:08.013Z,380
2018-05-15T03:57:07.728Z,392
2018-05-15T03:58:07.447Z,412
2018-05-15T03:59:07.958Z,432
2018-05-15T04:00:07.423Z,448
2018-05-15T04:01:07.683Z,468
2018-05-15T04:02:07.941Z,484
2018-05-15T04:03:08.176Z,504
2018-05-15T04:04:07.639Z,520
2018-05-15T04:05:07.888Z,540
2018-05-15T04:06:07.889Z,552
2018-05-15T04:07:07.857Z,572
2018-05-15T04:08:07.854Z,588
2018-05-15T04:09:08.107Z,608
2018-05-15T04:10:07.564Z,620
2018-05-15T04:11:08.231Z,640
2018-05-15T04:12:07.796Z,656
2018-05-15T04:13:07.718Z,676
2018-05-15T04:14:07.513Z,696
2018-05-15T04:15:07.496Z,712
2018-05-15T04:16:07.478Z,728
2018-05-15T04:17:07.734Z,744
2018-05-15T04:18:07.453Z,760
2018-05-15T04:19:07.445Z,780
2018-05-15T04:20:07.423Z,796
2018-05-15T04:21:07.431Z,812
2018-05-15T04:22:07.400Z,828
2018-05-15T04:23:07.397Z,844
2018-05-15T04:24:07.645Z,856
2018-05-15T04:25:07.367Z,876
2018-05-15T04:26:07.351Z,888
2018-05-15T04:27:07.871Z,908
2018-05-15T04:28:07.849Z,920
2018-05-15T04:29:07.838Z,940
2018-05-15T04:30:07.829Z,956
2018-05-15T04:31:07.555Z,968
2018-05-15T04:32:07.004Z,980
2018-05-15T04:33:07.790Z,996
2018-05-15T04:34:06.986Z,1008
2018-05-15T04:35:07.944Z,1020
2018-05-15T04:36:07.486Z,1036
2018-05-15T04:37:07.730Z,1048
2018-05-15T04:38:06.936Z,1064
2018-05-15T04:39:07.183Z,1072
2018-05-15T04:40:07.697Z,1084
2018-05-15T04:41:06.883Z,1096
2018-05-15T04:42:07.414Z,1108
2018-05-15T04:43:07.597Z,1124
2018-05-15T04:44:07.898Z,1140
2018-05-15T04:45:07.371Z,1152
2018-05-15T04:46:07.352Z,1168
2018-05-15T04:47:07.343Z,1180
2018-05-15T04:48:07.336Z,1192
2018-05-15T04:49:07.058Z,1204
2018-05-15T04:50:07.306Z,1220
2018-05-15T04:51:07.288Z,1236
2018-05-15T04:52:07.553Z,1248
2018-05-15T04:53:07.266Z,1260
2018-05-15T04:54:06.981Z,1272
2018-05-15T04:55:06.982Z,1284
2018-05-15T04:56:07.225Z,1296
2018-05-15T04:57:07.210Z,1300
2018-05-15T04:58:07.199Z,1312
2018-05-15T04:59:06.919Z,1324
2018-05-15T05:00:07.174Z,1336
2018-05-15T05:01:07.166Z,1340
2018-05-15T05:02:07.380Z,1356
2018-05-15T05:03:07.128Z,1364
2018-05-15T05:04:07.137Z,1376
2018-05-15T05:05:07.106Z,1388
2018-05-15T05:06:07.092Z,1392
2018-05-15T05:07:07.078Z,1400
2018-05-15T05:08:07.074Z,1416
2018-05-15T05:09:06.788Z,1424
2018-05-15T05:10:07.047Z,1432
2018-05-15T05:11:07.045Z,1444
2018-05-15T05:12:07.014Z,1452
2018-05-15T05:13:07.015Z,1464
2018-05-15T05:14:06.991Z,1472
2018-05-15T05:15:06.720Z,1480
2018-05-15T05:16:07.238Z,1488
2018-05-15T05:17:06.692Z,1500
2018-05-15T05:18:06.407Z,1512
2018-05-15T05:19:06.932Z,1520
2018-05-15T05:20:06.914Z,1540
2018-05-15T05:21:07.274Z,1540
2018-05-15T05:22:06.897Z,1548
2018-05-15T05:23:06.616Z,1564
2018-05-15T05:24:06.860Z,1580
2018-05-15T05:25:06.584Z,1584
2018-05-15T05:26:06.580Z,1600
2018-05-15T05:27:07.217Z,1608
2018-05-15T05:28:06.569Z,1620
2018-05-15T05:29:06.268Z,1628
2018-05-15T05:30:07.051Z,1636
2018-05-15T05:31:07.045Z,1660
2018-05-15T05:32:06.756Z,1664
2018-05-15T05:33:06.749Z,1676
2018-05-15T05:34:06.729Z,1700
2018-05-15T05:35:06.730Z,1712
2018-05-15T05:36:06.715Z,1724
2018-05-15T05:37:06.967Z,1728
2018-05-15T05:38:06.155Z,1732
2018-05-15T05:39:06.433Z,1724
2018-05-15T05:40:06.588Z,1720
2018-05-15T05:41:06.913Z,1724
2018-05-15T05:42:06.373Z,1732
2018-05-15T05:43:06.624Z,1744
2018-05-15T05:44:06.877Z,1760
2018-05-15T05:45:06.608Z,1772
2018-05-15T05:46:06.058Z,1784
2018-05-15T05:47:06.575Z,1792
2018-05-15T05:48:06.561Z,1796
2018-05-15T05:49:06.839Z,1812
2018-05-15T05:50:06.536Z,1828
2018-05-15T05:51:06.522Z,1848
2018-05-15T05:52:06.471Z,1868
2018-05-15T05:53:05.964Z,1880
2018-05-15T05:54:06.481Z,1892
2018-05-15T05:55:06.206Z,1904
2018-05-15T05:56:06.925Z,1916
2018-05-15T05:57:06.445Z,1936
2018-05-15T05:58:06.432Z,1944
2018-05-15T05:59:06.700Z,1960
2018-05-15T06:00:06.147Z,1972
2018-05-15T06:01:06.672Z,1968
2018-05-15T06:02:06.119Z,1972
2018-05-15T06:03:06.372Z,1976
2018-05-15T06:04:06.361Z,1984
2018-05-15T06:05:06.082Z,1996
2018-05-15T06:06:06.602Z,2012
2018-05-15T06:07:06.329Z,2024
2018-05-15T06:08:06.582Z,2036
2018-05-15T06:09:06.316Z,2040
2018-05-15T06:10:06.567Z,2052
2018-05-15T06:11:06.208Z,2072
2018-05-15T06:12:06.005Z,2092
2018-05-15T06:13:06.469Z,2112
2018-05-15T06:14:05.983Z,2132
2018-05-15T06:15:06.494Z,2156
2018-05-15T06:16:06.218Z,2172
2018-05-15T06:17:06.006Z,2196
2018-05-15T06:18:06.471Z,2220
2018-05-15T06:19:06.451Z,2228
2018-05-15T06:20:06.446Z,2240
2018-05-15T06:21:07.250Z,2256
2018-05-15T06:22:06.142Z,2264
2018-05-15T06:23:05.877Z,2272
2018-05-15T06:24:05.589Z,2272
2018-05-15T06:25:05.851Z,2284
2018-05-15T06:26:05.833Z,2284
2018-05-15T06:27:05.815Z,2292
2018-05-15T06:28:06.347Z,2316
2018-05-15T06:29:06.064Z,2320
2018-05-15T06:30:06.056Z,2328
2018-05-15T06:31:06.306Z,2340
2018-05-15T06:32:05.773Z,2348
2018-05-15T06:33:05.754Z,2364
2018-05-15T06:34:05.473Z,2372
2018-05-15T06:35:05.732Z,2392
2018-05-15T06:36:05.992Z,2408
2018-05-15T06:37:05.970Z,2432
2018-05-15T06:38:05.959Z,2452
2018-05-15T06:39:05.957Z,2472
2018-05-15T06:40:05.936Z,2492
2018-05-15T06:41:05.395Z,2504
2018-05-15T06:42:05.646Z,2528
2018-05-15T06:43:06.165Z,2544
2018-05-15T06:44:05.628Z,2564
2018-05-15T06:45:06.139Z,2580
2018-05-15T06:46:05.334Z,2608
2018-05-15T06:47:05.852Z,2632
2018-05-15T06:48:05.576Z,2640
2018-05-15T06:49:05.563Z,2640
2018-05-15T06:50:05.817Z,2644
2018-05-15T06:51:06.076Z,2656
2018-05-15T06:52:05.264Z,2680
2018-05-15T06:53:05.523Z,2700
2018-05-15T06:54:05.510Z,2724
2018-05-15T06:55:05.762Z,2736
2018-05-15T06:56:05.481Z,2744
2018-05-15T06:57:06.007Z,2756
2018-05-15T06:58:05.747Z,2772
2018-05-15T06:59:05.806Z,2788
2018-05-15T07:00:05.978Z,2788
2018-05-15T07:01:05.699Z,2812
2018-05-15T07:02:05.417Z,2836
2018-05-15T07:03:05.403Z,2852
2018-05-15T07:04:05.400Z,2864
2018-05-15T07:05:05.912Z,2884
2018-05-15T07:06:05.374Z,2884
2018-05-15T07:07:05.355Z,2896
2018-05-15T07:08:05.350Z,2904
2018-05-15T07:09:05.076Z,2912
2018-05-15T07:10:05.328Z,2912
2018-05-15T07:11:05.590Z,2912
2018-05-15T07:12:05.564Z,2940
2018-05-15T07:13:05.295Z,2948
2018-05-15T07:14:05.751Z,2960
2018-05-15T07:15:05.554Z,2960
2018-05-15T07:16:05.531Z,2956
2018-05-15T07:17:05.517Z,2968
2018-05-15T07:18:05.507Z,2984
2018-05-15T07:19:05.506Z,3008
2018-05-15T07:20:05.483Z,3028
2018-05-15T07:21:05.475Z,3060
2018-05-15T07:22:05.745Z,3100
2018-05-15T07:23:04.926Z,3156
2018-05-15T07:24:05.183Z,3292
2018-05-15T07:25:04.905Z,6660
2018-05-15T07:26:05.696Z,18048
2018-05-15T07:27:05.417Z,22272
2018-05-15T07:28:05.400Z,31488
2018-05-15T07:29:05.654Z,36416
2018-05-15T07:30:05.117Z,36576
2018-05-15T07:31:04.845Z,37952
2018-05-15T07:32:05.366Z,36416
2018-05-15T07:33:05.492Z,36128
2018-05-15T07:34:05.085Z,33120
2018-05-15T07:35:05.078Z,34688
2018-05-15T07:36:05.070Z,36000
2018-05-15T07:37:05.604Z,33664
2018-05-15T07:38:05.326Z,37536
2018-05-15T07:39:05.321Z,38112
2018-05-15T07:40:05.322Z,38528
2018-05-15T07:41:05.309Z,39680
2018-05-15T07:42:04.771Z,38304
2018-05-15T07:43:05.294Z,39648
2018-05-15T07:44:05.027Z,42784
2018-05-15T07:45:05.555Z,41824
2018-05-15T07:46:05.020Z,38880
2018-05-15T07:47:04.755Z,35072
2018-05-15T07:48:05.544Z,30240
2018-05-15T07:49:05.538Z,30880
2018-05-15T07:50:05.275Z,30944
2018-05-15T07:51:05.002Z,34176
2018-05-15T07:52:05.265Z,34784
2018-05-15T07:53:05.526Z,38080
2018-05-15T07:54:04.990Z,35168
2018-05-15T07:55:05.259Z,35424
2018-05-15T07:56:04.991Z,38816
2018-05-15T07:57:05.253Z,34848
2018-05-15T07:58:04.986Z,38528
2018-05-15T07:59:04.981Z,38240
2018-05-15T08:00:04.983Z,31616
2018-05-15T08:01:05.516Z,29632
2018-05-15T08:02:05.863Z,35904
2018-05-15T08:03:05.235Z,37888
2018-05-15T08:04:05.506Z,36544
2018-05-15T08:05:04.973Z,33600
2018-05-15T08:06:05.243Z,32448
2018-05-15T08:07:05.013Z,45184
2018-05-15T08:08:05.228Z,48064
2018-05-15T08:09:04.968Z,46880
2018-05-15T08:10:04.959Z,47232
2018-05-15T08:11:05.504Z,45536
2018-05-15T08:12:04.699Z,45984
2018-05-15T08:13:05.166Z,44800
2018-05-15T08:14:04.956Z,43488
2018-05-15T08:15:05.507Z,44064
2018-05-15T08:16:05.487Z,45056
2018-05-15T08:17:05.234Z,41408
2018-05-15T08:18:05.252Z,39584
2018-05-15T08:19:05.223Z,43104
2018-05-15T08:20:05.488Z,41760
2018-05-15T08:21:04.972Z,47904
2018-05-15T08:22:04.963Z,49440
2018-05-15T08:23:04.972Z,51232
2018-05-15T08:24:05.509Z,36896
2018-05-15T08:25:04.972Z,46496
2018-05-15T08:26:05.225Z,39008
2018-05-15T08:27:04.975Z,38112
2018-05-15T08:28:05.228Z,22880
2018-05-15T08:29:05.232Z,37568
2018-05-15T08:30:05.240Z,36160
2018-05-15T08:31:04.957Z,29088
2018-05-15T08:32:04.959Z,39808
2018-05-15T08:33:05.242Z,50240
2018-05-15T08:34:04.698Z,47392
2018-05-15T08:35:05.226Z,43648
2018-05-15T08:36:05.224Z,17280
2018-05-15T08:37:05.504Z,18016
2018-05-15T08:38:04.964Z,11188
2018-05-15T08:39:05.552Z,8240
2018-05-15T08:40:05.224Z,11332
2018-05-15T08:41:04.692Z,10588
2018-05-15T08:42:05.223Z,12120
2018-05-15T08:43:05.494Z,10264
2018-05-15T08:44:05.488Z,10664
2018-05-15T08:45:05.217Z,13380
2018-05-15T08:46:05.229Z,15792
2018-05-15T08:47:05.224Z,7384
2018-05-15T08:48:05.221Z,6204
2018-05-15T08:49:05.201Z,6972
2018-05-15T08:50:04.941Z,7144
2018-05-15T08:51:05.209Z,9140
2018-05-15T08:52:04.669Z,6184
2018-05-15T08:53:04.928Z,8808
2018-05-15T08:54:05.466Z,10892
2018-05-15T08:55:04.660Z,16020
2018-05-15T08:56:05.179Z,4720
2018-05-15T08:57:05.199Z,10592
2018-05-15T08:58:04.911Z,7788
2018-05-15T08:59:05.180Z,7336
2018-05-15T09:00:05.437Z,6264
2018-05-15T09:01:05.212Z,6900
2018-05-15T09:02:05.156Z,5452
2018-05-15T09:03:04.624Z,5704
2018-05-15T09:04:05.146Z,5920
2018-05-15T09:05:05.147Z,9072
2018-05-15T09:06:05.414Z,7812
2018-05-15T09:07:05.134Z,5576
2018-05-15T09:08:05.140Z,5512
2018-05-15T09:09:05.124Z,5564
2018-05-15T09:10:05.131Z,5476
2018-05-15T09:11:04.858Z,5508
2018-05-15T09:12:04.847Z,6828
2018-05-15T09:13:05.103Z,5528
2018-05-15T09:14:05.193Z,16608
2018-05-15T09:15:04.563Z,6208
2018-05-15T09:16:05.351Z,18304
2018-05-15T09:17:05.091Z,17400
2018-05-15T09:18:05.091Z,8380
2018-05-15T09:19:05.347Z,9196
2018-05-15T09:20:05.078Z,7200
2018-05-15T09:21:05.058Z,14616
2018-05-15T09:22:04.786Z,7216
2018-05-15T09:23:05.166Z,6524
2018-05-15T09:24:05.304Z,5580
2018-05-15T09:25:04.776Z,6164
2018-05-15T09:26:04.861Z,6688
2018-05-15T09:27:04.765Z,6196
2018-05-15T09:28:05.020Z,5968
2018-05-15T09:29:05.273Z,6484
2018-05-15T09:30:05.021Z,6760
2018-05-15T09:31:04.999Z,6992
2018-05-15T09:32:04.994Z,6716
2018-05-15T09:33:04.992Z,6832
2018-05-15T09:34:04.712Z,9316
2018-05-15T09:35:05.256Z,7508
2018-05-15T09:36:04.969Z,7496
2018-05-15T09:37:04.700Z,7176
2018-05-15T09:38:04.700Z,7240
2018-05-15T09:39:04.693Z,7368
2018-05-15T09:40:04.683Z,9364
2018-05-15T09:41:04.937Z,7416
2018-05-15T09:42:04.401Z,8044
2018-05-15T09:43:05.191Z,7824
2018-05-15T09:44:05.190Z,7652
2018-05-15T09:45:05.192Z,7724
2018-05-15T09:46:04.655Z,7768
2018-05-15T09:47:05.348Z,7676
2018-05-15T09:48:04.889Z,7608
2018-05-15T09:49:05.161Z,7688
2018-05-15T09:50:05.155Z,7900
2018-05-15T09:51:04.877Z,8056
2018-05-15T09:52:04.606Z,8472
2018-05-15T09:53:04.871Z,8004
2018-05-15T09:54:04.856Z,8452
2018-05-15T09:55:04.846Z,10440
2018-05-15T09:56:04.841Z,8728
2018-05-15T09:57:05.108Z,8572
2018-05-15T09:58:04.843Z,8600
2018-05-15T09:59:04.825Z,8548
2018-05-15T10:00:04.557Z,8772
2018-05-15T10:01:04.547Z,12140
2018-05-15T10:02:04.547Z,15900
2018-05-15T10:03:04.537Z,10632
2018-05-15T10:04:04.795Z,9180
2018-05-15T10:05:04.798Z,9860
2018-05-15T10:06:04.784Z,10044
2018-05-15T10:07:04.782Z,11548
2018-05-15T10:08:05.131Z,11024
2018-05-15T10:09:05.037Z,10648
2018-05-15T10:10:04.502Z,10856
2018-05-15T10:11:05.020Z,10728
2018-05-15T10:12:04.747Z,12308
2018-05-15T10:13:04.476Z,12344
2018-05-15T10:14:04.790Z,11200
2018-05-15T10:15:04.196Z,12660
2018-05-15T10:16:04.192Z,11612
2018-05-15T10:17:04.454Z,13684
2018-05-15T10:18:04.710Z,14516
2018-05-15T10:19:04.701Z,14404
2018-05-15T10:20:04.609Z,14404
2018-05-15T10:21:04.965Z,28864
2018-05-15T10:22:04.421Z,40768
2018-05-15T10:23:04.426Z,51840
2018-05-15T10:24:04.147Z,21248
2018-05-15T10:25:04.677Z,56928
2018-05-15T10:26:04.399Z,31456
2018-05-15T10:27:04.934Z,53280
2018-05-15T10:28:04.922Z,57120
2018-05-15T10:29:04.927Z,49632
2018-05-15T10:30:05.332Z,57120
2018-05-15T10:31:04.664Z,47904
2018-05-15T10:32:04.656Z,44768
2018-05-15T10:33:04.372Z,36128
2018-05-15T10:34:04.376Z,29632
2018-05-15T10:35:04.370Z,33728
2018-05-15T10:36:04.925Z,40448
2018-05-15T10:37:04.626Z,39488
2018-05-15T10:38:04.632Z,39520
2018-05-15T10:39:04.980Z,43584
2018-05-15T10:40:04.900Z,44288
2018-05-15T10:41:04.622Z,43200
2018-05-15T10:42:04.457Z,43616
2018-05-15T10:43:04.618Z,40160
2018-05-15T10:44:04.497Z,36192
2018-05-15T10:45:04.351Z,31808
2018-05-15T10:46:04.881Z,27712
2018-05-15T10:47:04.351Z,31904
2018-05-15T10:48:04.632Z,41184
2018-05-15T10:49:04.877Z,39232
2018-05-15T10:50:04.879Z,48192
2018-05-15T10:51:04.867Z,53600
2018-05-15T10:52:04.871Z,41952
2018-05-15T10:53:04.601Z,38112
2018-05-15T10:54:04.882Z,58176
2018-05-15T10:55:04.870Z,53184
2018-05-15T10:56:04.066Z,48608
2018-05-15T10:57:04.321Z,47136
2018-05-15T10:58:04.590Z,44320
2018-05-15T10:59:04.856Z,51808
2018-05-15T11:00:04.860Z,65088
2018-05-15T11:01:04.851Z,74624
2018-05-15T11:02:04.321Z,81408
2018-05-15T11:03:04.588Z,92256
2018-05-15T11:04:04.592Z,87776
2018-05-15T11:05:04.597Z,81888
2018-05-15T11:06:04.359Z,75136
2018-05-15T11:07:04.854Z,66528
2018-05-15T11:08:04.320Z,67328
2018-05-15T11:09:04.600Z,67744
2018-05-15T11:10:04.324Z,60384
2018-05-15T11:11:04.595Z,58464
2018-05-15T11:12:04.332Z,44832
2018-05-15T11:13:04.330Z,52672
2018-05-15T11:14:04.605Z,71744
2018-05-15T11:15:04.069Z,76128
2018-05-15T11:16:04.605Z,86752
2018-05-15T11:17:04.881Z,86432
2018-05-15T11:18:04.884Z,87776
2018-05-15T11:19:04.354Z,87936
2018-05-15T11:20:04.890Z,86752
2018-05-15T11:21:04.349Z,87776
2018-05-15T11:22:04.354Z,86528
2018-05-15T11:23:04.357Z,82976
2018-05-15T11:24:04.372Z,80640
2018-05-15T11:25:04.367Z,79488
2018-05-15T11:26:04.628Z,77856
2018-05-15T11:27:04.651Z,80288
2018-05-15T11:28:04.645Z,79328
2018-05-15T11:29:04.913Z,84320
2018-05-15T11:30:04.664Z,87424
2018-05-15T11:31:04.656Z,88608
2018-05-15T11:32:04.928Z,88320
2018-05-15T11:33:04.930Z,90848
2018-05-15T11:34:04.671Z,90944
2018-05-15T11:35:04.416Z,90400
2018-05-15T11:36:04.260Z,89344
2018-05-15T11:37:04.422Z,86016
2018-05-15T11:38:04.958Z,81280
2018-05-15T11:39:04.697Z,76832
2018-05-15T11:40:04.971Z,74432
2018-05-15T11:41:04.449Z,72288
2018-05-15T11:42:04.879Z,72768
2018-05-15T11:43:04.723Z,74656
2018-05-15T11:44:04.733Z,76768
2018-05-15T11:45:04.755Z,78944
2018-05-15T11:46:04.747Z,81248
2018-05-15T11:47:04.741Z,83008
2018-05-15T11:48:05.819Z,85376
2018-05-15T11:49:07.566Z,83424
2018-05-15T11:50:07.944Z,83616
2018-05-15T11:51:09.860Z,84032
2018-05-15T11:52:07.079Z,84032
2018-05-15T11:53:10.353Z,84160
2018-05-15T11:54:04.715Z,82496
2018-05-15T11:55:04.532Z,79552
2018-05-15T11:56:05.369Z,77280
2018-05-15T11:57:04.550Z,75840
2018-05-15T11:58:05.386Z,70080
2018-05-15T11:59:04.816Z,69664
2018-05-15T12:00:05.135Z,71616
2018-05-15T12:01:04.834Z,74592
2018-05-15T12:02:04.841Z,78208
2018-05-15T12:03:04.583Z,82048
2018-05-15T12:04:04.673Z,84768
2018-05-15T12:05:04.855Z,84320
2018-05-15T12:06:05.128Z,87136
2018-05-15T12:07:04.858Z,86336
2018-05-15T12:08:05.159Z,81088
2018-05-15T12:09:05.397Z,84064
2018-05-15T12:10:04.891Z,82496
2018-05-15T12:11:04.636Z,84096
2018-05-15T12:12:04.901Z,84128
2018-05-15T12:13:04.724Z,84160
2018-05-15T12:14:05.390Z,85760
2018-05-15T12:15:05.052Z,84800
2018-05-15T12:16:05.415Z,82112
2018-05-15T12:17:05.218Z,75968
2018-05-15T12:18:04.945Z,75136
2018-05-15T12:19:04.693Z,73920
2018-05-15T12:20:04.693Z,71264
2018-05-15T12:21:05.123Z,69792
2018-05-15T12:22:04.700Z,73056
2018-05-15T12:23:04.711Z,81440
2018-05-15T12:24:05.250Z,84704
2018-05-15T12:25:04.730Z,88320
2018-05-15T12:26:04.993Z,90496
2018-05-15T12:27:04.997Z,85920
2018-05-15T12:28:05.177Z,80736
2018-05-15T12:29:05.288Z,74688
2018-05-15T12:30:04.820Z,71520
2018-05-15T12:31:05.301Z,68832
2018-05-15T12:32:04.771Z,72800
2018-05-15T12:33:05.361Z,73920
2018-05-15T12:34:05.046Z,72416
2018-05-15T12:35:05.046Z,72704
2018-05-15T12:36:05.061Z,78368
2018-05-15T12:37:05.338Z,83840
2018-05-15T12:38:04.808Z,87296
2018-05-15T12:39:05.339Z,91328
2018-05-15T12:40:05.357Z,87200
2018-05-15T12:41:05.098Z,90816
2018-05-15T12:42:05.734Z,87872
2018-05-15T12:43:04.838Z,83456
2018-05-15T12:44:04.584Z,79456
2018-05-15T12:45:04.854Z,77344
2018-05-15T12:46:05.392Z,73920
2018-05-15T12:47:05.139Z,75424
2018-05-15T12:48:05.055Z,79488
2018-05-15T12:49:05.419Z,83168
2018-05-15T12:50:05.161Z,90080
2018-05-15T12:51:04.637Z,93248
2018-05-15T12:52:04.643Z,85120
2018-05-15T12:53:04.644Z,80672
2018-05-15T12:54:05.906Z,81056
2018-05-15T12:55:05.195Z,82208
2018-05-15T12:56:05.198Z,85376
2018-05-15T12:57:05.202Z,87904
2018-05-15T12:58:04.950Z,92160
2018-05-15T12:59:05.229Z,91168
2018-05-15T13:00:04.961Z,87456
2018-05-15T13:01:05.248Z,81984
2018-05-15T13:02:04.712Z,80000
2018-05-15T13:03:04.980Z,81792
2018-05-15T13:04:04.989Z,86368
2018-05-15T13:05:04.992Z,91616
2018-05-15T13:06:05.527Z,99520
2018-05-15T13:07:04.743Z,104032
2018-05-15T13:08:05.423Z,102592
2018-05-15T13:09:05.020Z,96672
2018-05-15T13:10:05.022Z,86240
2018-05-15T13:11:05.311Z,79712
2018-05-15T13:12:05.040Z,73568
2018-05-15T13:13:05.045Z,73056
2018-05-15T13:14:05.590Z,77280
2018-05-15T13:15:04.798Z,83520
2018-05-15T13:16:05.345Z,90720
2018-05-15T13:17:05.336Z,95328
2018-05-15T13:18:04.815Z,95840
2018-05-15T13:19:05.354Z,94016
2018-05-15T13:20:05.093Z,88096
2018-05-15T13:21:05.428Z,90432
2018-05-15T13:22:05.395Z,90464
2018-05-15T13:23:05.127Z,91520
2018-05-15T13:24:05.395Z,90368
2018-05-15T13:25:05.147Z,89504
2018-05-15T13:26:05.445Z,86304
2018-05-15T13:27:05.415Z,83328
2018-05-15T13:28:05.424Z,77504
2018-05-15T13:29:05.418Z,78752
2018-05-15T13:30:05.604Z,82592
2018-05-15T13:31:05.437Z,85984